Time;durP1;ratioP1;P1;durP2;ratioP2;P2;SDS_P1;SDS_P2;PMS_P1;PMS_P2;Temp;Humidity;BMP_temperature;BMP_pressure;BME280_temperature;BME280_humidity;BME280_pressure;Samples;Min_cycle;Max_cycle;Signal;HPM_P1;HPM_P2
2022/12/16 00:00:28;;;;;;;;;;;;;;;;;;1051991;28;2118;-54
2022/12/16 00:01:20;;;;;;;;;;;;;;;;;;1049852;28;1520;-50
2022/12/16 00:01:50;;;;;;;;;;;;;;;;;;1046833;28;1976;-49
2022/12/16 00:02:20;;;;;;;;;;;;;;;;;;1051517;28;1845;-52
2022/12/16 00:02:51;;;;;;;;;;;;;;;;;;1050184;28;2250;-48
2022/12/16 00:03:21;;;;;;;;;;;;;;;;;;1054497;28;2041;-49
2022/12/16 00:03:53;;;;;;;;;;;;;;;;;;1053001;28;2481;-50
2022/12/16 00:04:23;;;;;;;;;;;;;;;;;;1054983;28;2757;-53
2022/12/16 00:04:53;;;;;;;;;;;;;;;;;;1055395;28;2556;-48
2022/12/16 00:05:23;;;;;;;;;;;;;;;;;;1054578;28;1734;-47
2022/12/16 00:05:54;;;;;;;;;;;;;;;;;;1053339;28;1779;-50
2022/12/16 00:06:25;;;;;;;;;;;;;;;;;;1054101;28;2465;-53
2022/12/16 00:06:55;;;;;;;;;;;;;;;;;;1052667;28;2125;-53
2022/12/16 00:07:26;;;;;;;;;;;;;;;;;;1051541;28;2918;-50
2022/12/16 00:07:56;;;;;;;;;;;;;;;;;;1051788;28;2473;-51
2022/12/16 00:08:26;;;;;;;;;;;;;;;;;;1053108;28;2382;-50
2022/12/16 00:08:57;;;;;;;;;;;;;;;;;;1052314;28;2820;-51
2022/12/16 00:09:27;;;;;;;;;;;;;;;;;;1052259;28;2433;-50
2022/12/16 00:09:57;;;;;;;;;;;;;;;;;;1055298;28;2274;-51
2022/12/16 00:10:51;;;;;;;;;;;;;;;;;;1052277;28;2466;-52
2022/12/16 00:11:18;;;;;;;;;;;;;;;;;;1054194;28;2350;-49
2022/12/16 00:11:49;;;;;;;;;;;;;;;;;;1050143;28;2542;-50
2022/12/16 00:12:19;;;;;;;;;;;;;;;;;;1052007;28;2334;-52
2022/12/16 00:12:49;;;;;;;;;;;;;;;;;;1051515;28;2508;-50
2022/12/16 00:13:19;;;;;;;;;;;;;;;;;;1053169;28;2998;-48
2022/12/16 00:13:50;;;;;;;;;;;;;;;;;;1051866;28;2393;-52
2022/12/16 00:14:20;;;;;;;;;;;;;;;;;;1050622;28;2472;-53
2022/12/16 00:14:50;;;;;;;;;;;;;;;;;;1054327;28;1878;-53
2022/12/16 00:15:20;;;;;;;;;;;;;;;;;;1053723;28;2502;-51
2022/12/16 00:15:51;;;;;;;;;;;;;;;;;;1054191;28;1682;-50
2022/12/16 00:16:21;;;;;;;;;;;;;;;;;;1052699;28;2595;-52
2022/12/16 00:16:51;;;;;;;;;;;;;;;;;;1052115;28;2221;-53
2022/12/16 00:17:21;;;;;;;;;;;;;;;;;;1052672;28;2440;-51
2022/12/16 00:17:52;;;;;;;;;;;;;;;;;;1053291;28;2301;-54
2022/12/16 00:18:22;;;;;;;;;;;;;;;;;;1052730;28;2457;-51
2022/12/16 00:18:52;;;;;;;;;;;;;;;;;;1048230;28;2154;-51
2022/12/16 00:19:23;;;;;;;;;;;;;;;;;;1048044;28;2785;-50
2022/12/16 00:19:53;;;;;;;;;;;;;;;;;;1044238;28;2343;-50
2022/12/16 00:20:24;;;;;;;;;;;;;;;;;;1044010;28;2938;-51
2022/12/16 00:20:54;;;;;;;;;;;;;;;;;;1049655;28;2150;-49
2022/12/16 00:21:28;;;;;;;;;;;;;;;;;;1044017;28;2420;-52
2022/12/16 00:21:58;;;;;;;;;;;;;;;;;;1047798;28;2460;-52
2022/12/16 00:22:28;;;;;;;;;;;;;;;;;;1047574;28;2595;-52
2022/12/16 00:22:59;;;;;;;;;;;;;;;;;;1051220;28;1670;-52
2022/12/16 00:23:29;;;;;;;;;;;;;;;;;;1052239;28;2503;-52
2022/12/16 00:23:59;;;;;;;;;;;;;;;;;;1052433;28;2480;-50
2022/12/16 00:24:30;;;;;;;;;;;;;;;;;;1054075;28;2401;-51
2022/12/16 00:25:00;;;;;;;;;;;;;;;;;;1051735;28;2521;-49
2022/12/16 00:25:31;;;;;;;;;;;;;;;;;;1052247;28;2471;-50
2022/12/16 00:26:01;;;;;;;;;;;;;;;;;;1052582;28;2450;-52
2022/12/16 00:26:31;;;;;;;;;;;;;;;;;;1052260;28;2383;-50
2022/12/16 00:27:02;;;;;;;;;;;;;;;;;;1048444;28;2473;-50
2022/12/16 00:27:33;;;;;;;;;;;;;;;;;;1049296;28;2339;-52
2022/12/16 00:28:03;;;;;;;;;;;;;;;;;;1047979;28;2409;-52
2022/12/16 00:28:33;;;;;;;;;;;;;;;;;;1048047;28;2921;-53
2022/12/16 00:29:11;;;;;;;;;;;;;;;;;;1050386;28;2623;-50
2022/12/16 00:29:48;;;;;;;;;;;;;;;;;;1050853;28;2771;-48
2022/12/16 00:30:25;;;;;;;;;;;;;;;;;;1052646;28;2406;-49
2022/12/16 00:30:55;;;;;;;;;;;;;;;;;;1053224;28;2181;-54
2022/12/16 00:31:26;;;;;;;;;;;;;;;;;;1052882;28;2326;-51
2022/12/16 00:31:56;;;;;;;;;;;;;;;;;;1051415;28;2188;-49
2022/12/16 00:32:27;;;;;;;;;;;;;;;;;;1052934;28;2480;-51
2022/12/16 00:32:57;;;;;;;;;;;;;;;;;;1048228;28;2454;-54
2022/12/16 00:33:27;;;;;;;;;;;;;;;;;;1047420;28;2245;-49
2022/12/16 00:33:58;;;;;;;;;;;;;;;;;;1048159;28;2132;-50
2022/12/16 00:34:28;;;;;;;;;;;;;;;;;;1049363;28;2402;-53
2022/12/16 00:34:59;;;;;;;;;;;;;;;;;;1053435;28;2039;-54
2022/12/16 00:35:29;;;;;;;;;;;;;;;;;;1053365;28;2462;-53
2022/12/16 00:35:59;;;;;;;;;;;;;;;;;;1052946;28;2120;-49
2022/12/16 00:36:29;;;;;;;;;;;;;;;;;;1052092;28;2841;-49
2022/12/16 00:37:00;;;;;;;;;;;;;;;;;;1052518;28;1590;-53
2022/12/16 00:37:30;;;;;;;;;;;;;;;;;;1051596;28;2376;-54
2022/12/16 00:38:00;;;;;;;;;;;;;;;;;;1052125;28;1710;-48
2022/12/16 00:38:30;;;;;;;;;;;;;;;;;;1052230;28;2727;-50
2022/12/16 00:39:00;;;;;;;;;;;;;;;;;;1052823;28;2264;-51
2022/12/16 00:39:31;;;;;;;;;;;;;;;;;;1052813;28;2439;-51
2022/12/16 00:40:01;;;;;;;;;;;;;;;;;;1053012;28;2431;-50
2022/12/16 00:40:31;;;;;;;;;;;;;;;;;;1051668;28;2623;-48
2022/12/16 00:41:02;;;;;;;;;;;;;;;;;;1052234;28;2301;-51
2022/12/16 00:41:32;;;;;;;;;;;;;;;;;;1053610;28;2981;-52
2022/12/16 00:42:02;;;;;;;;;;;;;;;;;;1052730;28;2441;-54
2022/12/16 00:42:32;;;;;;;;;;;;;;;;;;1052511;28;2349;-48
2022/12/16 00:43:03;;;;;;;;;;;;;;;;;;1052494;28;2540;-55
2022/12/16 00:43:33;;;;;;;;;;;;;;;;;;1054894;28;2561;-48
2022/12/16 00:44:03;;;;;;;;;;;;;;;;;;1051967;28;2439;-53
2022/12/16 00:44:34;;;;;;;;;;;;;;;;;;1053069;28;2549;-54
2022/12/16 00:45:04;;;;;;;;;;;;;;;;;;1054229;28;2319;-51
2022/12/16 00:45:34;;;;;;;;;;;;;;;;;;1052713;28;2547;-51
2022/12/16 00:46:04;;;;;;;;;;;;;;;;;;1053332;28;2370;-52
2022/12/16 00:46:35;;;;;;;;;;;;;;;;;;1053475;28;2612;-52
2022/12/16 00:47:05;;;;;;;;;;;;;;;;;;1052727;28;2513;-50
2022/12/16 00:47:35;;;;;;;;;;;;;;;;;;1048532;28;2546;-51
2022/12/16 00:48:06;;;;;;;;;;;;;;;;;;1048794;28;2308;-51
2022/12/16 00:48:36;;;;;;;;;;;;;;;;;;1049327;28;2482;-49
2022/12/16 00:49:07;;;;;;;;;;;;;;;;;;1048540;28;1927;-50
2022/12/16 00:49:37;;;;;;;;;;;;;;;;;;1048130;28;2577;-50
2022/12/16 00:50:07;;;;;;;;;;;;;;;;;;1048538;28;2950;-51
2022/12/16 00:50:38;;;;;;;;;;;;;;;;;;1048100;28;2692;-49
2022/12/16 00:51:08;;;;;;;;;;;;;;;;;;1047099;28;2649;-51
2022/12/16 00:51:38;;;;;;;;;;;;;;;;;;1052551;28;2557;-52
2022/12/16 00:52:08;;;;;;;;;;;;;;;;;;1053103;28;2439;-54
2022/12/16 00:52:39;;;;;;;;;;;;;;;;;;1053823;28;2401;-50
2022/12/16 00:53:09;;;;;;;;;;;;;;;;;;1049946;28;2419;-53
2022/12/16 00:53:39;;;;;;;;;;;;;;;;;;1049180;28;2360;-49
2022/12/16 00:54:09;;;;;;;;;;;;;;;;;;1048642;28;2934;-53
2022/12/16 00:54:40;;;;;;;;;;;;;;;;;;1049632;28;2671;-54
2022/12/16 00:55:10;;;;;;;;;;;;;;;;;;1049379;28;2685;-50
2022/12/16 00:55:41;;;;;;;;;;;;;;;;;;1050569;28;2688;-51
2022/12/16 00:56:17;;;;;;;;;;;;;;;;;;1050247;28;2214;-52
2022/12/16 00:56:47;;;;;;;;;;;;;;;;;;1051034;28;2442;-49
2022/12/16 00:57:17;;;;;;;;;;;;;;;;;;1053338;28;2738;-52
2022/12/16 00:57:48;;;;;;;;;;;;;;;;;;1052963;28;2905;-50
2022/12/16 00:58:19;;;;;;;;;;;;;;;;;;1054464;28;2486;-54
2022/12/16 00:58:49;;;;;;;;;;;;;;;;;;1053485;28;3050;-50
2022/12/16 00:59:19;;;;;;;;;;;;;;;;;;1053942;28;2588;-52
2022/12/16 00:59:49;;;;;;;;;;;;;;;;;;1056444;28;1642;-49
2022/12/16 01:00:21;;;;;;;;;;;;;;;;;;1053149;28;2552;-52
2022/12/16 01:00:51;;;;;;;;;;;;;;;;;;1052795;28;2274;-53
2022/12/16 01:01:21;;;;;;;;;;;;;;;;;;1053812;28;2941;-51
2022/12/16 01:01:52;;;;;;;;;;;;;;;;;;1053810;28;2476;-51
2022/12/16 01:02:22;;;;;;;;;;;;;;;;;;1052820;28;2534;-50
2022/12/16 01:02:52;;;;;;;;;;;;;;;;;;1056489;28;1467;-51
2022/12/16 01:03:23;;;;;;;;;;;;;;;;;;1053605;28;2365;-49
2022/12/16 01:03:55;;;;;;;;;;;;;;;;;;1051939;28;2341;-54
2022/12/16 01:04:25;;;;;;;;;;;;;;;;;;1054204;28;2787;-50
2022/12/16 01:04:55;;;;;;;;;;;;;;;;;;1051690;28;2654;-50
2022/12/16 01:05:32;;;;;;;;;;;;;;;;;;1043867;28;2784;-51
2022/12/16 01:06:15;;;;;;;;;;;;;;;;;;1045456;28;1470;-52
2022/12/16 01:06:46;;;;;;;;;;;;;;;;;;1043896;28;2535;-52
2022/12/16 01:07:16;;;;;;;;;;;;;;;;;;1046240;28;2977;-50
2022/12/16 01:07:46;;;;;;;;;;;;;;;;;;1051046;28;2063;-49
2022/12/16 01:08:17;;;;;;;;;;;;;;;;;;1055114;28;2544;-51
2022/12/16 01:08:47;;;;;;;;;;;;;;;;;;1054006;28;2127;-48
2022/12/16 01:09:17;;;;;;;;;;;;;;;;;;1051676;28;2425;-49
2022/12/16 01:09:47;;;;;;;;;;;;;;;;;;1055583;28;2135;-53
2022/12/16 01:10:18;;;;;;;;;;;;;;;;;;1052644;28;3833;-52
2022/12/16 01:10:49;;;;;;;;;;;;;;;;;;1048480;28;2485;-49
2022/12/16 01:11:20;;;;;;;;;;;;;;;;;;1048917;28;2344;-50
2022/12/16 01:11:50;;;;;;;;;;;;;;;;;;1048448;28;2403;-52
2022/12/16 01:12:20;;;;;;;;;;;;;;;;;;1047020;28;2376;-53
2022/12/16 01:12:50;;;;;;;;;;;;;;;;;;1049381;28;2945;-50
2022/12/16 01:13:21;;;;;;;;;;;;;;;;;;1050138;28;2454;-48
2022/12/16 01:13:53;;;;;;;;;;;;;;;;;;1049381;28;2331;-49
2022/12/16 01:14:23;;;;;;;;;;;;;;;;;;1054249;28;2913;-50
2022/12/16 01:14:53;;;;;;;;;;;;;;;;;;1053816;28;1845;-50
2022/12/16 01:15:24;;;;;;;;;;;;;;;;;;1053263;28;2501;-50
2022/12/16 01:15:54;;;;;;;;;;;;;;;;;;1052345;28;2008;-48
2022/12/16 01:16:24;;;;;;;;;;;;;;;;;;1054369;28;2981;-50
2022/12/16 01:16:54;;;;;;;;;;;;;;;;;;1054130;28;2146;-55
2022/12/16 01:17:25;;;;;;;;;;;;;;;;;;1052544;28;2962;-52
2022/12/16 01:17:55;;;;;;;;;;;;;;;;;;1052592;28;2936;-53
2022/12/16 01:18:25;;;;;;;;;;;;;;;;;;1052898;28;2390;-51
2022/12/16 01:18:55;;;;;;;;;;;;;;;;;;1054870;28;2067;-49
2022/12/16 01:19:26;;;;;;;;;;;;;;;;;;1053750;28;2478;-51
2022/12/16 01:19:56;;;;;;;;;;;;;;;;;;1053061;28;2286;-51
2022/12/16 01:20:26;;;;;;;;;;;;;;;;;;1053947;28;2558;-55
2022/12/16 01:21:03;;;;;;;;;;;;;;;;;;1055680;28;2177;-50
2022/12/16 01:21:34;;;;;;;;;;;;;;;;;;1055206;28;2745;-51
2022/12/16 01:22:04;;;;;;;;;;;;;;;;;;1053262;28;2311;-51
2022/12/16 01:22:34;;;;;;;;;;;;;;;;;;1053592;28;2546;-52
2022/12/16 01:23:05;;;;;;;;;;;;;;;;;;1048033;28;2942;-50
2022/12/16 01:23:35;;;;;;;;;;;;;;;;;;1044010;28;2764;-50
2022/12/16 01:24:05;;;;;;;;;;;;;;;;;;1045003;28;2681;-54
2022/12/16 01:24:35;;;;;;;;;;;;;;;;;;1044168;28;2472;-51
2022/12/16 01:25:07;;;;;;;;;;;;;;;;;;1048926;28;2458;-52
2022/12/16 01:25:37;;;;;;;;;;;;;;;;;;1053216;28;2331;-49
2022/12/16 01:26:08;;;;;;;;;;;;;;;;;;1048149;28;2457;-51
2022/12/16 01:26:38;;;;;;;;;;;;;;;;;;1050090;28;2953;-53
2022/12/16 01:27:09;;;;;;;;;;;;;;;;;;1047092;28;2517;-52
2022/12/16 01:27:39;;;;;;;;;;;;;;;;;;1049753;28;3604;-49
2022/12/16 01:28:09;;;;;;;;;;;;;;;;;;1053484;28;2480;-52
2022/12/16 01:28:39;;;;;;;;;;;;;;;;;;1048131;28;2853;-51
2022/12/16 01:29:10;;;;;;;;;;;;;;;;;;1044089;28;2337;-53
2022/12/16 01:29:47;;;;;;;;;;;;;;;;;;1044667;28;2432;-49
2022/12/16 01:30:24;;;;;;;;;;;;;;;;;;1041177;28;3031;-52
2022/12/16 01:31:01;;;;;;;;;;;;;;;;;;1047663;28;1678;-51
2022/12/16 01:31:31;;;;;;;;;;;;;;;;;;1045529;28;2668;-51
2022/12/16 01:32:01;;;;;;;;;;;;;;;;;;1045606;28;2224;-51
2022/12/16 01:32:32;;;;;;;;;;;;;;;;;;1045971;28;2733;-51
2022/12/16 01:33:02;;;;;;;;;;;;;;;;;;1044889;28;1745;-48
2022/12/16 01:33:32;;;;;;;;;;;;;;;;;;1047063;28;2847;-51
2022/12/16 01:34:03;;;;;;;;;;;;;;;;;;1045686;28;2456;-50
2022/12/16 01:34:33;;;;;;;;;;;;;;;;;;1044770;28;2420;-49
2022/12/16 01:35:04;;;;;;;;;;;;;;;;;;1045976;28;2458;-49
2022/12/16 01:35:34;;;;;;;;;;;;;;;;;;1046096;28;2666;-51
2022/12/16 01:36:05;;;;;;;;;;;;;;;;;;1045652;28;3044;-49
2022/12/16 01:36:35;;;;;;;;;;;;;;;;;;1045978;28;3194;-53
2022/12/16 01:37:06;;;;;;;;;;;;;;;;;;1046215;28;2497;-55
2022/12/16 01:37:36;;;;;;;;;;;;;;;;;;1047356;28;2406;-52
2022/12/16 01:38:06;;;;;;;;;;;;;;;;;;1045318;28;2356;-51
2022/12/16 01:38:43;;;;;;;;;;;;;;;;;;1047478;28;2672;-54
2022/12/16 01:39:13;;;;;;;;;;;;;;;;;;1041117;28;2538;-54
2022/12/16 01:39:44;;;;;;;;;;;;;;;;;;1041484;28;2744;-51
2022/12/16 01:40:18;;;;;;;;;;;;;;;;;;1039208;28;2503;-50
2022/12/16 01:40:48;;;;;;;;;;;;;;;;;;1046562;28;2055;-52
2022/12/16 01:41:18;;;;;;;;;;;;;;;;;;1046634;28;2664;-50
2022/12/16 01:41:48;;;;;;;;;;;;;;;;;;1045782;28;1794;-49
2022/12/16 01:42:21;;;;;;;;;;;;;;;;;;1044731;28;2915;-54
2022/12/16 01:42:51;;;;;;;;;;;;;;;;;;1044606;28;2144;-51
2022/12/16 01:43:23;;;;;;;;;;;;;;;;;;1045203;28;2573;-54
2022/12/16 01:44:11;;;;;;;;;;;;;;;;;;1045587;28;2457;-52
2022/12/16 01:44:42;;;;;;;;;;;;;;;;;;1044581;28;2715;-54
2022/12/16 01:45:26;;;;;;;;;;;;;;;;;;1046264;28;3056;-53
2022/12/16 01:45:59;;;;;;;;;;;;;;;;;;1044904;28;1645;-50
2022/12/16 01:46:29;;;;;;;;;;;;;;;;;;1044833;28;3013;-54
2022/12/16 01:47:02;;;;;;;;;;;;;;;;;;1045559;28;2866;-51
2022/12/16 01:47:32;;;;;;;;;;;;;;;;;;1046580;28;2464;-53
2022/12/16 01:48:23;;;;;;;;;;;;;;;;;;1043213;28;2095;-54
2022/12/16 01:48:59;;;;;;;;;;;;;;;;;;1044400;28;2303;-50
2022/12/16 01:49:35;;;;;;;;;;;;;;;;;;1045648;28;2460;-50
2022/12/16 01:50:10;;;;;;;;;;;;;;;;;;1045992;28;1940;-49
2022/12/16 01:50:41;;;;;;;;;;;;;;;;;;1048115;28;2379;-53
2022/12/16 01:51:14;;;;;;;;;;;;;;;;;;1046204;28;2937;-50
2022/12/16 01:51:45;;;;;;;;;;;;;;;;;;1043495;28;1800;-51
2022/12/16 01:52:17;;;;;;;;;;;;;;;;;;1043658;28;2376;-48
2022/12/16 01:52:50;;;;;;;;;;;;;;;;;;1044950;28;2453;-48
2022/12/16 01:53:20;;;;;;;;;;;;;;;;;;1044640;28;2937;-50
2022/12/16 01:53:53;;;;;;;;;;;;;;;;;;1043752;28;1948;-51
2022/12/16 01:54:27;;;;;;;;;;;;;;;;;;1045482;28;2365;-50
2022/12/16 01:55:06;;;;;;;;;;;;;;;;;;1046972;28;2056;-50
2022/12/16 01:55:39;;;;;;;;;;;;;;;;;;1046894;28;2216;-51
2022/12/16 01:56:10;;;;;;;;;;;;;;;;;;1045306;28;2463;-52
2022/12/16 01:56:42;;;;;;;;;;;;;;;;;;1046594;28;2402;-49
2022/12/16 01:57:13;;;;;;;;;;;;;;;;;;1045492;28;2987;-48
2022/12/16 01:57:50;;;;;;;;;;;;;;;;;;1045481;28;2771;-50
2022/12/16 01:58:26;;;;;;;;;;;;;;;;;;1045389;28;2412;-47
2022/12/16 01:58:57;;;;;;;;;;;;;;;;;;1046182;28;2447;-52
2022/12/16 01:59:28;;;;;;;;;;;;;;;;;;1046146;28;2427;-52
2022/12/16 01:59:59;;;;;;;;;;;;;;;;;;1045612;28;1630;-51
2022/12/16 02:00:30;;;;;;;;;;;;;;;;;;1045777;28;2370;-53
2022/12/16 02:01:02;;;;;;;;;;;;;;;;;;1045924;28;2144;-49
2022/12/16 02:01:33;;;;;;;;;;;;;;;;;;1044708;28;2426;-52
2022/12/16 02:02:03;;;;;;;;;;;;;;;;;;1044372;28;2379;-53
2022/12/16 02:02:34;;;;;;;;;;;;;;;;;;1046432;28;2440;-48
2022/12/16 02:03:04;;;;;;;;;;;;;;;;;;1044016;28;2233;-50
2022/12/16 02:03:35;;;;;;;;;;;;;;;;;;1046605;28;2870;-48
2022/12/16 02:04:06;;;;;;;;;;;;;;;;;;1045052;28;2400;-52
2022/12/16 02:05:19;;;;;;;;;;;;;;;;;;1047061;28;2362;-52
2022/12/16 02:05:28;;;;;;;;;;;;;;;;;;1045666;28;2409;-50
2022/12/16 02:05:58;;;;;;;;;;;;;;;;;;1044142;28;1666;-49
2022/12/16 02:06:29;;;;;;;;;;;;;;;;;;1044891;28;2612;-50
2022/12/16 02:06:59;;;;;;;;;;;;;;;;;;1043818;28;2465;-51
2022/12/16 02:07:29;;;;;;;;;;;;;;;;;;1044781;28;2557;-50
2022/12/16 02:08:01;;;;;;;;;;;;;;;;;;1042751;28;3528;-52
2022/12/16 02:08:31;;;;;;;;;;;;;;;;;;1044858;28;2173;-52
2022/12/16 02:09:04;;;;;;;;;;;;;;;;;;1045645;28;1996;-50
2022/12/16 02:09:35;;;;;;;;;;;;;;;;;;1045438;28;2368;-52
2022/12/16 02:10:05;;;;;;;;;;;;;;;;;;1043049;28;1697;-52
2022/12/16 02:10:41;;;;;;;;;;;;;;;;;;1044590;28;2117;-53
2022/12/16 02:11:30;;;;;;;;;;;;;;;;;;1046352;28;2426;-50
2022/12/16 02:12:24;;;;;;;;;;;;;;;;;;1045391;28;2421;-50
2022/12/16 02:13:08;;;;;;;;;;;;;;;;;;1045770;28;2441;-54
2022/12/16 02:14:05;;;;;;;;;;;;;;;;;;1046291;28;3016;-49
2022/12/16 02:14:54;;;;;;;;;;;;;;;;;;1046900;28;2969;-50
2022/12/16 02:15:32;;;;;;;;;;;;;;;;;;1044017;28;2385;-51
2022/12/16 02:16:07;;;;;;;;;;;;;;;;;;1045582;28;2446;-51
2022/12/16 02:16:49;;;;;;;;;;;;;;;;;;1045118;28;2356;-52
2022/12/16 02:17:22;;;;;;;;;;;;;;;;;;1044471;28;2211;-51
2022/12/16 02:17:55;;;;;;;;;;;;;;;;;;1045363;28;1950;-48
2022/12/16 02:18:32;;;;;;;;;;;;;;;;;;1045945;28;2313;-50
2022/12/16 02:19:35;;;;;;;;;;;;;;;;;;1046284;28;2640;-50
2022/12/16 02:20:24;;;;;;;;;;;;;;;;;;1045179;28;3716;-52
2022/12/16 02:21:12;;;;;;;;;;;;;;;;;;1044317;28;1662;-51
2022/12/16 02:22:01;;;;;;;;;;;;;;;;;;1046787;28;2655;-49
2022/12/16 02:22:41;;;;;;;;;;;;;;;;;;1046550;28;2368;-53
2022/12/16 02:23:14;;;;;;;;;;;;;;;;;;1046234;28;2330;-49
2022/12/16 02:24:03;;;;;;;;;;;;;;;;;;1046564;28;2770;-52
2022/12/16 02:24:36;;;;;;;;;;;;;;;;;;1047022;28;2563;-47
2022/12/16 02:25:09;;;;;;;;;;;;;;;;;;1045018;28;2835;-51
2022/12/16 02:25:50;;;;;;;;;;;;;;;;;;1046153;28;2350;-50
2022/12/16 02:26:34;;;;;;;;;;;;;;;;;;1047112;28;2957;-50
2022/12/16 02:27:25;;;;;;;;;;;;;;;;;;1046095;28;2965;-51
2022/12/16 02:28:02;;;;;;;;;;;;;;;;;;1046046;28;2312;-50
2022/12/16 02:28:56;;;;;;;;;;;;;;;;;;1046342;28;2377;-52
2022/12/16 02:29:50;;;;;;;;;;;;;;;;;;1045230;28;2434;-51
2022/12/16 02:30:45;;;;;;;;;;;;;;;;;;1042972;28;2763;-48
2022/12/16 02:31:22;;;;;;;;;;;;;;;;;;1043806;28;2645;-51
2022/12/16 02:31:57;;;;;;;;;;;;;;;;;;1045100;28;2181;-53
2022/12/16 02:32:46;;;;;;;;;;;;;;;;;;1043841;28;2473;-51
2022/12/16 02:33:28;;;;;;;;;;;;;;;;;;1040589;28;2375;-50
2022/12/16 02:34:01;;;;;;;;;;;;;;;;;;1046533;28;2160;-53
2022/12/16 02:34:34;;;;;;;;;;;;;;;;;;1040107;28;2687;-49
2022/12/16 02:35:09;;;;;;;;;;;;;;;;;;1044114;28;2781;-50
2022/12/16 02:36:07;;;;;;;;;;;;;;;;;;1044357;28;2226;-53
2022/12/16 02:36:47;;;;;;;;;;;;;;;;;;1044304;28;2970;-48
2022/12/16 02:37:23;;;;;;;;;;;;;;;;;;1043818;28;2600;-52
2022/12/16 02:38:00;;;;;;;;;;;;;;;;;;1044018;28;2049;-51
2022/12/16 02:38:41;;;;;;;;;;;;;;;;;;1043786;28;2708;-50
2022/12/16 02:39:20;;;;;;;;;;;;;;;;;;1042323;28;2396;-51
2022/12/16 02:40:01;;;;;;;;;;;;;;;;;;1044495;28;2965;-52
2022/12/16 02:40:35;;;;;;;;;;;;;;;;;;1045001;28;2977;-55
2022/12/16 02:41:09;;;;;;;;;;;;;;;;;;1043795;28;2546;-53
2022/12/16 02:41:49;;;;;;;;;;;;;;;;;;1044077;28;2523;-53
2022/12/16 02:42:30;;;;;;;;;;;;;;;;;;1043225;28;2356;-52
2022/12/16 02:43:03;;;;;;;;;;;;;;;;;;1044823;28;2504;-49
2022/12/16 02:43:52;;;;;;;;;;;;;;;;;;1044424;28;2665;-50
2022/12/16 02:44:28;;;;;;;;;;;;;;;;;;1044761;28;2646;-51
2022/12/16 02:45:11;;;;;;;;;;;;;;;;;;1044635;28;2523;-50
2022/12/16 02:45:41;;;;;;;;;;;;;;;;;;1043732;28;2368;-53
2022/12/16 02:46:12;;;;;;;;;;;;;;;;;;1045294;28;2559;-52
2022/12/16 02:46:52;;;;;;;;;;;;;;;;;;1044780;28;2680;-54
2022/12/16 02:47:23;;;;;;;;;;;;;;;;;;1044160;28;2432;-51
2022/12/16 02:47:53;;;;;;;;;;;;;;;;;;1044122;28;2660;-49
2022/12/16 02:48:24;;;;;;;;;;;;;;;;;;1044338;28;2926;-51
2022/12/16 02:48:54;;;;;;;;;;;;;;;;;;1044720;28;2499;-52
2022/12/16 02:49:24;;;;;;;;;;;;;;;;;;1042948;28;3123;-52
2022/12/16 02:49:55;;;;;;;;;;;;;;;;;;1045085;28;2626;-52
2022/12/16 02:50:29;;;;;;;;;;;;;;;;;;1044130;28;2367;-49
2022/12/16 02:50:59;;;;;;;;;;;;;;;;;;1044716;28;1813;-53
2022/12/16 02:51:30;;;;;;;;;;;;;;;;;;1045522;28;2516;-53
2022/12/16 02:52:01;;;;;;;;;;;;;;;;;;1044912;28;2335;-51
2022/12/16 02:52:32;;;;;;;;;;;;;;;;;;1044768;28;2293;-51
2022/12/16 02:53:03;;;;;;;;;;;;;;;;;;1044013;28;2535;-54
2022/12/16 02:53:34;;;;;;;;;;;;;;;;;;1045251;28;2567;-50
2022/12/16 02:54:07;;;;;;;;;;;;;;;;;;1043925;28;2512;-50
2022/12/16 02:54:37;;;;;;;;;;;;;;;;;;1044395;28;2069;-51
2022/12/16 02:55:08;;;;;;;;;;;;;;;;;;1047090;28;2309;-55
2022/12/16 02:55:46;;;;;;;;;;;;;;;;;;1044647;28;2224;-51
2022/12/16 02:56:19;;;;;;;;;;;;;;;;;;1045606;28;2195;-51
2022/12/16 02:56:58;;;;;;;;;;;;;;;;;;1045862;28;2482;-51
2022/12/16 02:57:28;;;;;;;;;;;;;;;;;;1047469;28;1674;-50
2022/12/16 02:58:01;;;;;;;;;;;;;;;;;;1046804;28;2046;-53
2022/12/16 02:58:40;;;;;;;;;;;;;;;;;;1049000;28;2607;-51
2022/12/16 02:59:16;;;;;;;;;;;;;;;;;;1044052;28;2964;-49
2022/12/16 03:00:04;;;;;;;;;;;;;;;;;;1046133;28;2364;-50
2022/12/16 03:00:40;;;;;;;;;;;;;;;;;;1044969;28;2572;-53
2022/12/16 03:01:16;;;;;;;;;;;;;;;;;;1043428;28;2485;-53
2022/12/16 03:01:51;;;;;;;;;;;;;;;;;;1043830;28;2374;-53
2022/12/16 03:02:27;;;;;;;;;;;;;;;;;;1043088;28;2525;-53
2022/12/16 03:03:24;;;;;;;;;;;;;;;;;;1045871;28;2009;-50
2022/12/16 03:04:01;;;;;;;;;;;;;;;;;;1041487;28;2417;-48
2022/12/16 03:04:31;;;;;;;;;;;;;;;;;;1042905;28;2718;-51
2022/12/16 03:05:05;;;;;;;;;;;;;;;;;;1045930;28;1616;-55
2022/12/16 03:05:40;;;;;;;;;;;;;;;;;;1045060;28;2829;-53
2022/12/16 03:06:13;;;;;;;;;;;;;;;;;;1044447;28;2710;-49
2022/12/16 03:06:45;;;;;;;;;;;;;;;;;;1046507;28;2760;-50
2022/12/16 03:07:16;;;;;;;;;;;;;;;;;;1044702;28;3644;-51
2022/12/16 03:07:47;;;;;;;;;;;;;;;;;;1045555;28;2767;-49
2022/12/16 03:08:32;;;;;;;;;;;;;;;;;;1045272;28;2459;-51
2022/12/16 03:09:05;;;;;;;;;;;;;;;;;;1042668;28;3597;-52
2022/12/16 03:09:37;;;;;;;;;;;;;;;;;;1046258;28;2739;-56
2022/12/16 03:10:08;;;;;;;;;;;;;;;;;;1044668;28;2025;-48
2022/12/16 03:10:51;;;;;;;;;;;;;;;;;;1044311;28;2627;-53
2022/12/16 03:11:23;;;;;;;;;;;;;;;;;;1046606;28;2463;-51
2022/12/16 03:11:55;;;;;;;;;;;;;;;;;;1045944;28;2211;-51
2022/12/16 03:12:26;;;;;;;;;;;;;;;;;;1046777;28;2286;-52
2022/12/16 03:12:58;;;;;;;;;;;;;;;;;;1045585;28;2153;-50
2022/12/16 03:13:30;;;;;;;;;;;;;;;;;;1045406;28;2566;-50
2022/12/16 03:14:02;;;;;;;;;;;;;;;;;;1042531;28;2408;-53
2022/12/16 03:14:34;;;;;;;;;;;;;;;;;;1045391;28;1994;-52
2022/12/16 03:15:06;;;;;;;;;;;;;;;;;;1042362;28;2378;-54
2022/12/16 03:15:38;;;;;;;;;;;;;;;;;;1045750;28;2520;-49
2022/12/16 03:16:09;;;;;;;;;;;;;;;;;;1045347;28;2640;-54
2022/12/16 03:16:40;;;;;;;;;;;;;;;;;;1047155;28;2823;-54
2022/12/16 03:17:12;;;;;;;;;;;;;;;;;;1044992;28;2967;-53
2022/12/16 03:17:44;;;;;;;;;;;;;;;;;;1045789;28;2792;-51
2022/12/16 03:18:15;;;;;;;;;;;;;;;;;;1046617;28;2442;-53
2022/12/16 03:18:49;;;;;;;;;;;;;;;;;;1045378;28;2238;-54
2022/12/16 03:19:20;;;;;;;;;;;;;;;;;;1044375;28;2355;-48
2022/12/16 03:20:00;;;;;;;;;;;;;;;;;;1045445;28;2000;-55
2022/12/16 03:20:34;;;;;;;;;;;;;;;;;;1044958;28;2514;-49
2022/12/16 03:21:05;;;;;;;;;;;;;;;;;;1045543;28;2478;-50
2022/12/16 03:21:49;;;;;;;;;;;;;;;;;;1046592;28;2632;-52
2022/12/16 03:22:20;;;;;;;;;;;;;;;;;;1044882;28;2390;-48
2022/12/16 03:22:52;;;;;;;;;;;;;;;;;;1045376;28;2035;-55
2022/12/16 03:23:43;;;;;;;;;;;;;;;;;;1044903;28;2811;-51
2022/12/16 03:24:13;;;;;;;;;;;;;;;;;;1044032;28;2461;-51
2022/12/16 03:24:43;;;;;;;;;;;;;;;;;;1043200;28;2356;-53
2022/12/16 03:25:14;;;;;;;;;;;;;;;;;;1044239;28;2396;-52
2022/12/16 03:25:46;;;;;;;;;;;;;;;;;;1042030;28;2814;-50
2022/12/16 03:26:39;;;;;;;;;;;;;;;;;;1044146;28;2443;-55
2022/12/16 03:27:09;;;;;;;;;;;;;;;;;;1043507;28;2403;-51
2022/12/16 03:27:48;;;;;;;;;;;;;;;;;;1043722;28;2605;-52
2022/12/16 03:28:18;;;;;;;;;;;;;;;;;;1043616;28;2181;-51
2022/12/16 03:29:04;;;;;;;;;;;;;;;;;;1043894;28;2343;-52
2022/12/16 03:29:44;;;;;;;;;;;;;;;;;;1044408;28;2354;-49
2022/12/16 03:30:22;;;;;;;;;;;;;;;;;;1050532;28;2571;-49
2022/12/16 03:31:04;;;;;;;;;;;;;;;;;;1053133;28;1426;-48
2022/12/16 03:31:41;;;;;;;;;;;;;;;;;;1052638;28;2420;-51
2022/12/16 03:32:20;;;;;;;;;;;;;;;;;;1052811;28;2450;-49
2022/12/16 03:33:02;;;;;;;;;;;;;;;;;;1052657;28;3442;-52
2022/12/16 03:33:53;;;;;;;;;;;;;;;;;;1053114;28;2521;-50
2022/12/16 03:34:34;;;;;;;;;;;;;;;;;;1052057;28;2422;-53
2022/12/16 03:35:05;;;;;;;;;;;;;;;;;;1054408;28;2428;-52
2022/12/16 03:35:37;;;;;;;;;;;;;;;;;;1053964;28;2604;-52
2022/12/16 03:36:11;;;;;;;;;;;;;;;;;;1051351;28;2358;-51
2022/12/16 03:36:42;;;;;;;;;;;;;;;;;;1052028;28;2753;-52
2022/12/16 03:37:13;;;;;;;;;;;;;;;;;;1052348;28;2907;-52
2022/12/16 03:37:45;;;;;;;;;;;;;;;;;;1054793;28;2836;-49
2022/12/16 03:38:15;;;;;;;;;;;;;;;;;;1053280;28;2972;-52
2022/12/16 03:38:46;;;;;;;;;;;;;;;;;;1053301;28;2412;-52
2022/12/16 03:39:18;;;;;;;;;;;;;;;;;;1052322;28;2326;-50
2022/12/16 03:39:50;;;;;;;;;;;;;;;;;;1052453;28;2265;-50
2022/12/16 03:40:22;;;;;;;;;;;;;;;;;;1053831;28;2921;-49
2022/12/16 03:40:53;;;;;;;;;;;;;;;;;;1051989;28;2004;-55
2022/12/16 03:41:24;;;;;;;;;;;;;;;;;;1051142;28;2247;-53
2022/12/16 03:41:55;;;;;;;;;;;;;;;;;;1054157;28;2628;-54
2022/12/16 03:42:25;;;;;;;;;;;;;;;;;;1051198;28;2475;-50
2022/12/16 03:42:55;;;;;;;;;;;;;;;;;;1054095;28;2019;-50
2022/12/16 03:43:26;;;;;;;;;;;;;;;;;;1053064;28;2382;-53
2022/12/16 03:43:56;;;;;;;;;;;;;;;;;;1052099;28;2236;-49
2022/12/16 03:44:26;;;;;;;;;;;;;;;;;;1051683;28;2693;-50
2022/12/16 03:44:57;;;;;;;;;;;;;;;;;;1051937;28;2671;-51
2022/12/16 03:45:29;;;;;;;;;;;;;;;;;;1052148;28;2514;-52
2022/12/16 03:46:02;;;;;;;;;;;;;;;;;;1053735;28;2651;-49
2022/12/16 03:46:32;;;;;;;;;;;;;;;;;;1051557;28;2335;-52
2022/12/16 03:47:03;;;;;;;;;;;;;;;;;;1048317;28;2587;-49
2022/12/16 03:47:34;;;;;;;;;;;;;;;;;;1049421;28;2756;-50
2022/12/16 03:48:06;;;;;;;;;;;;;;;;;;1047733;28;2632;-51
2022/12/16 03:48:43;;;;;;;;;;;;;;;;;;1049570;28;2545;-53
2022/12/16 03:49:13;;;;;;;;;;;;;;;;;;1053678;28;2979;-50
2022/12/16 03:49:44;;;;;;;;;;;;;;;;;;1052859;28;2841;-53
2022/12/16 03:50:15;;;;;;;;;;;;;;;;;;1052721;28;2636;-52
2022/12/16 03:50:45;;;;;;;;;;;;;;;;;;1051626;28;2460;-55
2022/12/16 03:51:16;;;;;;;;;;;;;;;;;;1050552;28;2550;-56
2022/12/16 03:51:47;;;;;;;;;;;;;;;;;;1053719;28;1910;-53
2022/12/16 03:52:17;;;;;;;;;;;;;;;;;;1054249;28;2932;-52